sensor_id;sensor_type;location;lat;lon;timestamp;P1;durP1;ratioP1;P2;durP2;ratioP2
82230;SDS011;71832;45.138;9.816;2023-10-19T00:01:15;39.85;;;18.17;;
82230;SDS011;71832;45.138;9.816;2023-10-19T00:03:43;43.13;;;19.50;;
82230;SDS011;71832;45.138;9.816;2023-10-19T00:06:15;43.58;;;20.52;;
82230;SDS011;71832;45.138;9.816;2023-10-19T00:08:44;47.83;;;19.92;;
82230;SDS011;71832;45.138;9.816;2023-10-19T00:11:12;43.10;;;20.33;;
82230;SDS011;71832;45.138;9.816;2023-10-19T00:13:52;48.95;;;20.17;;
82230;SDS011;71832;45.138;9.816;2023-10-19T00:16:21;45.28;;;19.20;;
82230;SDS011;71832;45.138;9.816;2023-10-19T00:18:54;47.38;;;20.15;;
82230;SDS011;71832;45.138;9.816;2023-10-19T00:21:25;44.38;;;19.45;;
82230;SDS011;71832;45.138;9.816;2023-10-19T00:23:55;45.22;;;20.25;;
82230;SDS011;71832;45.138;9.816;2023-10-19T00:26:30;41.88;;;19.10;;
82230;SDS011;71832;45.138;9.816;2023-10-19T00:28:59;45.15;;;20.70;;
82230;SDS011;71832;45.138;9.816;2023-10-19T00:31:44;45.72;;;20.33;;
82230;SDS011;71832;45.138;9.816;2023-10-19T00:34:14;44.17;;;20.25;;
82230;SDS011;71832;45.138;9.816;2023-10-19T00:36:43;44.50;;;20.23;;
82230;SDS011;71832;45.138;9.816;2023-10-19T00:39:13;50.17;;;21.92;;
82230;SDS011;71832;45.138;9.816;2023-10-19T00:41:47;46.53;;;21.08;;
82230;SDS011;71832;45.138;9.816;2023-10-19T00:44:15;42.30;;;19.63;;
82230;SDS011;71832;45.138;9.816;2023-10-19T00:47:03;39.65;;;19.70;;
82230;SDS011;71832;45.138;9.816;2023-10-19T00:49:39;46.55;;;20.48;;
82230;SDS011;71832;45.138;9.816;2023-10-19T00:52:10;46.53;;;21.25;;
82230;SDS011;71832;45.138;9.816;2023-10-19T00:54:42;48.22;;;19.67;;
82230;SDS011;71832;45.138;9.816;2023-10-19T00:57:12;47.47;;;21.30;;
82230;SDS011;71832;45.138;9.816;2023-10-19T00:59:46;48.15;;;21.20;;
82230;SDS011;71832;45.138;9.816;2023-10-19T01:02:17;40.55;;;19.67;;
82230;SDS011;71832;45.138;9.816;2023-10-19T01:04:48;41.78;;;20.30;;
82230;SDS011;71832;45.138;9.816;2023-10-19T01:07:22;43.25;;;19.98;;
82230;SDS011;71832;45.138;9.816;2023-10-19T01:09:55;45.63;;;21.10;;
82230;SDS011;71832;45.138;9.816;2023-10-19T01:12:26;40.40;;;18.67;;
82230;SDS011;71832;45.138;9.816;2023-10-19T01:15:21;45.00;;;20.38;;
82230;SDS011;71832;45.138;9.816;2023-10-19T01:17:57;42.88;;;20.05;;
82230;SDS011;71832;45.138;9.816;2023-10-19T01:20:28;44.72;;;21.98;;
82230;SDS011;71832;45.138;9.816;2023-10-19T01:22:58;47.85;;;21.13;;
82230;SDS011;71832;45.138;9.816;2023-10-19T01:28:16;47.40;;;21.33;;
82230;SDS011;71832;45.138;9.816;2023-10-19T01:30:45;41.53;;;20.33;;
82230;SDS011;71832;45.138;9.816;2023-10-19T01:33:17;49.25;;;21.35;;
82230;SDS011;71832;45.138;9.816;2023-10-19T01:35:47;47.05;;;21.75;;
82230;SDS011;71832;45.138;9.816;2023-10-19T01:38:34;44.40;;;20.70;;
82230;SDS011;71832;45.138;9.816;2023-10-19T01:41:03;46.67;;;22.23;;
82230;SDS011;71832;45.138;9.816;2023-10-19T01:43:43;49.60;;;22.35;;
82230;SDS011;71832;45.138;9.816;2023-10-19T01:46:14;40.97;;;20.27;;
82230;SDS011;71832;45.138;9.816;2023-10-19T01:48:48;48.03;;;21.42;;
82230;SDS011;71832;45.138;9.816;2023-10-19T01:51:22;42.28;;;20.60;;
82230;SDS011;71832;45.138;9.816;2023-10-19T01:53:52;48.30;;;20.63;;
82230;SDS011;71832;45.138;9.816;2023-10-19T01:56:22;44.83;;;22.08;;
82230;SDS011;71832;45.138;9.816;2023-10-19T01:58:51;46.60;;;21.52;;
82230;SDS011;71832;45.138;9.816;2023-10-19T02:01:20;42.97;;;20.40;;
82230;SDS011;71832;45.138;9.816;2023-10-19T02:03:50;45.30;;;20.45;;
82230;SDS011;71832;45.138;9.816;2023-10-19T02:06:20;44.28;;;20.38;;
82230;SDS011;71832;45.138;9.816;2023-10-19T02:08:55;44.00;;;21.10;;
82230;SDS011;71832;45.138;9.816;2023-10-19T02:11:27;45.25;;;21.73;;
82230;SDS011;71832;45.138;9.816;2023-10-19T02:13:58;42.45;;;21.15;;
82230;SDS011;71832;45.138;9.816;2023-10-19T02:16:30;48.80;;;22.77;;
82230;SDS011;71832;45.138;9.816;2023-10-19T02:18:59;45.75;;;22.10;;
82230;SDS011;71832;45.138;9.816;2023-10-19T02:21:27;45.42;;;22.48;;
82230;SDS011;71832;45.138;9.816;2023-10-19T02:23:57;43.47;;;21.40;;
82230;SDS011;71832;45.138;9.816;2023-10-19T02:26:25;49.13;;;21.75;;
82230;SDS011;71832;45.138;9.816;2023-10-19T02:28:53;43.70;;;20.38;;
82230;SDS011;71832;45.138;9.816;2023-10-19T02:31:22;45.30;;;21.13;;
82230;SDS011;71832;45.138;9.816;2023-10-19T02:33:51;47.53;;;21.98;;
82230;SDS011;71832;45.138;9.816;2023-10-19T02:36:24;49.08;;;22.10;;
82230;SDS011;71832;45.138;9.816;2023-10-19T02:39:00;53.80;;;23.05;;
82230;SDS011;71832;45.138;9.816;2023-10-19T02:41:34;44.33;;;20.63;;
82230;SDS011;71832;45.138;9.816;2023-10-19T02:44:03;48.20;;;22.13;;
82230;SDS011;71832;45.138;9.816;2023-10-19T02:46:36;48.15;;;22.15;;
82230;SDS011;71832;45.138;9.816;2023-10-19T02:49:06;48.40;;;22.33;;
82230;SDS011;71832;45.138;9.816;2023-10-19T02:51:38;49.65;;;22.48;;
82230;SDS011;71832;45.138;9.816;2023-10-19T02:54:10;47.28;;;22.50;;
82230;SDS011;71832;45.138;9.816;2023-10-19T02:57:00;44.65;;;21.67;;
82230;SDS011;71832;45.138;9.816;2023-10-19T02:59:32;46.47;;;20.90;;
82230;SDS011;71832;45.138;9.816;2023-10-19T03:02:01;52.25;;;22.98;;
82230;SDS011;71832;45.138;9.816;2023-10-19T03:04:41;44.08;;;21.88;;
82230;SDS011;71832;45.138;9.816;2023-10-19T03:07:11;49.53;;;23.00;;
82230;SDS011;71832;45.138;9.816;2023-10-19T03:09:40;50.78;;;22.88;;
82230;SDS011;71832;45.138;9.816;2023-10-19T03:12:14;55.60;;;23.60;;
82230;SDS011;71832;45.138;9.816;2023-10-19T03:14:43;46.13;;;22.52;;
82230;SDS011;71832;45.138;9.816;2023-10-19T03:17:14;50.78;;;23.30;;
82230;SDS011;71832;45.138;9.816;2023-10-19T03:19:41;46.92;;;22.50;;
82230;SDS011;71832;45.138;9.816;2023-10-19T03:22:09;46.72;;;22.63;;
82230;SDS011;71832;45.138;9.816;2023-10-19T03:24:37;52.10;;;23.38;;
82230;SDS011;71832;45.138;9.816;2023-10-19T03:27:10;48.25;;;23.38;;
82230;SDS011;71832;45.138;9.816;2023-10-19T03:29:41;50.70;;;24.42;;
82230;SDS011;71832;45.138;9.816;2023-10-19T03:32:13;45.33;;;22.23;;
82230;SDS011;71832;45.138;9.816;2023-10-19T03:34:42;48.40;;;23.80;;
82230;SDS011;71832;45.138;9.816;2023-10-19T03:37:13;47.97;;;22.58;;
82230;SDS011;71832;45.138;9.816;2023-10-19T03:39:41;50.35;;;23.15;;
82230;SDS011;71832;45.138;9.816;2023-10-19T03:42:11;44.15;;;21.75;;
82230;SDS011;71832;45.138;9.816;2023-10-19T03:44:40;53.60;;;23.85;;
82230;SDS011;71832;45.138;9.816;2023-10-19T03:47:09;48.90;;;23.10;;
82230;SDS011;71832;45.138;9.816;2023-10-19T03:49:38;44.55;;;22.27;;
82230;SDS011;71832;45.138;9.816;2023-10-19T03:52:06;45.75;;;22.83;;
82230;SDS011;71832;45.138;9.816;2023-10-19T03:54:35;54.75;;;24.40;;
82230;SDS011;71832;45.138;9.816;2023-10-19T03:57:05;48.80;;;23.00;;
82230;SDS011;71832;45.138;9.816;2023-10-19T03:59:38;47.90;;;23.05;;
82230;SDS011;71832;45.138;9.816;2023-10-19T04:02:07;44.58;;;22.60;;
82230;SDS011;71832;45.138;9.816;2023-10-19T04:04:39;48.63;;;22.98;;
82230;SDS011;71832;45.138;9.816;2023-10-19T04:07:14;50.60;;;23.30;;
82230;SDS011;71832;45.138;9.816;2023-10-19T04:09:47;49.38;;;22.75;;
82230;SDS011;71832;45.138;9.816;2023-10-19T04:12:35;50.35;;;22.95;;
82230;SDS011;71832;45.138;9.816;2023-10-19T04:15:05;50.63;;;23.90;;
82230;SDS011;71832;45.138;9.816;2023-10-19T04:20:11;48.65;;;23.38;;
82230;SDS011;71832;45.138;9.816;2023-10-19T04:22:54;47.65;;;23.58;;
82230;SDS011;71832;45.138;9.816;2023-10-19T04:25:24;51.58;;;24.52;;
82230;SDS011;71832;45.138;9.816;2023-10-19T04:27:53;53.70;;;22.23;;
82230;SDS011;71832;45.138;9.816;2023-10-19T04:30:23;58.22;;;25.73;;
82230;SDS011;71832;45.138;9.816;2023-10-19T04:32:52;52.22;;;25.42;;
82230;SDS011;71832;45.138;9.816;2023-10-19T04:35:23;54.28;;;25.08;;
82230;SDS011;71832;45.138;9.816;2023-10-19T04:37:55;52.50;;;24.27;;
82230;SDS011;71832;45.138;9.816;2023-10-19T04:40:25;49.75;;;23.75;;
82230;SDS011;71832;45.138;9.816;2023-10-19T04:42:54;53.63;;;24.48;;
82230;SDS011;71832;45.138;9.816;2023-10-19T04:45:23;53.95;;;24.17;;
82230;SDS011;71832;45.138;9.816;2023-10-19T04:47:52;52.25;;;23.00;;
82230;SDS011;71832;45.138;9.816;2023-10-19T04:50:21;53.92;;;25.52;;
82230;SDS011;71832;45.138;9.816;2023-10-19T04:52:49;59.30;;;24.42;;
82230;SDS011;71832;45.138;9.816;2023-10-19T04:55:18;52.50;;;24.60;;
82230;SDS011;71832;45.138;9.816;2023-10-19T04:57:47;55.65;;;25.48;;
82230;SDS011;71832;45.138;9.816;2023-10-19T05:00:17;55.08;;;25.45;;
82230;SDS011;71832;45.138;9.816;2023-10-19T05:02:47;50.58;;;23.58;;
82230;SDS011;71832;45.138;9.816;2023-10-19T05:05:17;50.75;;;23.98;;
82230;SDS011;71832;45.138;9.816;2023-10-19T05:07:46;57.20;;;24.50;;
82230;SDS011;71832;45.138;9.816;2023-10-19T05:10:14;52.53;;;22.45;;
82230;SDS011;71832;45.138;9.816;2023-10-19T05:12:43;52.95;;;23.23;;
82230;SDS011;71832;45.138;9.816;2023-10-19T05:15:11;54.92;;;23.73;;
82230;SDS011;71832;45.138;9.816;2023-10-19T05:17:40;50.17;;;24.60;;
82230;SDS011;71832;45.138;9.816;2023-10-19T05:20:08;51.60;;;25.35;;
82230;SDS011;71832;45.138;9.816;2023-10-19T05:22:36;54.60;;;24.17;;
82230;SDS011;71832;45.138;9.816;2023-10-19T05:25:05;51.63;;;25.20;;
82230;SDS011;71832;45.138;9.816;2023-10-19T05:27:33;56.47;;;24.88;;
82230;SDS011;71832;45.138;9.816;2023-10-19T05:30:02;51.63;;;24.15;;
82230;SDS011;71832;45.138;9.816;2023-10-19T05:32:31;53.90;;;25.92;;
82230;SDS011;71832;45.138;9.816;2023-10-19T05:35:00;55.53;;;24.40;;
82230;SDS011;71832;45.138;9.816;2023-10-19T05:37:31;53.72;;;24.45;;
82230;SDS011;71832;45.138;9.816;2023-10-19T05:39:59;55.08;;;26.80;;
82230;SDS011;71832;45.138;9.816;2023-10-19T05:42:30;51.53;;;24.83;;
82230;SDS011;71832;45.138;9.816;2023-10-19T05:45:00;52.83;;;24.45;;
82230;SDS011;71832;45.138;9.816;2023-10-19T05:47:29;55.45;;;25.17;;
82230;SDS011;71832;45.138;9.816;2023-10-19T05:49:57;54.20;;;24.88;;
82230;SDS011;71832;45.138;9.816;2023-10-19T05:52:26;55.88;;;25.85;;
82230;SDS011;71832;45.138;9.816;2023-10-19T05:54:56;53.35;;;24.75;;
82230;SDS011;71832;45.138;9.816;2023-10-19T05:57:23;55.75;;;25.48;;
82230;SDS011;71832;45.138;9.816;2023-10-19T05:59:52;57.03;;;25.98;;
82230;SDS011;71832;45.138;9.816;2023-10-19T06:02:21;54.80;;;24.92;;
82230;SDS011;71832;45.138;9.816;2023-10-19T06:04:49;52.13;;;25.13;;
82230;SDS011;71832;45.138;9.816;2023-10-19T06:07:18;52.47;;;24.95;;
82230;SDS011;71832;45.138;9.816;2023-10-19T06:09:47;57.10;;;25.77;;
82230;SDS011;71832;45.138;9.816;2023-10-19T06:12:15;51.67;;;25.02;;
82230;SDS011;71832;45.138;9.816;2023-10-19T06:14:44;56.65;;;26.23;;
82230;SDS011;71832;45.138;9.816;2023-10-19T06:17:13;54.75;;;26.23;;
82230;SDS011;71832;45.138;9.816;2023-10-19T06:19:45;57.97;;;26.20;;
82230;SDS011;71832;45.138;9.816;2023-10-19T06:22:13;52.33;;;25.48;;
82230;SDS011;71832;45.138;9.816;2023-10-19T06:24:42;51.13;;;26.52;;
82230;SDS011;71832;45.138;9.816;2023-10-19T06:27:11;53.42;;;24.80;;
82230;SDS011;71832;45.138;9.816;2023-10-19T06:29:39;52.58;;;24.15;;
82230;SDS011;71832;45.138;9.816;2023-10-19T06:32:10;57.38;;;26.80;;
82230;SDS011;71832;45.138;9.816;2023-10-19T06:34:38;58.20;;;25.65;;
82230;SDS011;71832;45.138;9.816;2023-10-19T06:37:07;58.58;;;25.60;;
82230;SDS011;71832;45.138;9.816;2023-10-19T06:39:36;56.42;;;25.35;;
82230;SDS011;71832;45.138;9.816;2023-10-19T06:42:07;51.42;;;25.67;;
82230;SDS011;71832;45.138;9.816;2023-10-19T06:44:40;56.95;;;26.63;;
82230;SDS011;71832;45.138;9.816;2023-10-19T06:47:09;60.53;;;26.30;;
82230;SDS011;71832;45.138;9.816;2023-10-19T06:49:39;54.42;;;24.75;;
82230;SDS011;71832;45.138;9.816;2023-10-19T06:52:08;58.20;;;25.23;;
82230;SDS011;71832;45.138;9.816;2023-10-19T06:54:37;58.60;;;26.83;;
82230;SDS011;71832;45.138;9.816;2023-10-19T06:57:06;53.00;;;26.98;;
82230;SDS011;71832;45.138;9.816;2023-10-19T06:59:35;59.83;;;27.40;;
82230;SDS011;71832;45.138;9.816;2023-10-19T07:02:04;57.83;;;27.17;;
82230;SDS011;71832;45.138;9.816;2023-10-19T07:04:33;58.35;;;26.98;;
82230;SDS011;71832;45.138;9.816;2023-10-19T07:07:01;66.97;;;28.05;;
82230;SDS011;71832;45.138;9.816;2023-10-19T07:09:29;56.83;;;25.58;;
82230;SDS011;71832;45.138;9.816;2023-10-19T07:12:00;58.92;;;28.38;;
82230;SDS011;71832;45.138;9.816;2023-10-19T07:14:29;54.85;;;26.05;;
82230;SDS011;71832;45.138;9.816;2023-10-19T07:16:59;62.50;;;27.67;;
82230;SDS011;71832;45.138;9.816;2023-10-19T07:19:28;52.97;;;25.88;;
82230;SDS011;71832;45.138;9.816;2023-10-19T07:21:57;63.33;;;27.10;;
82230;SDS011;71832;45.138;9.816;2023-10-19T07:24:30;57.42;;;26.77;;
82230;SDS011;71832;45.138;9.816;2023-10-19T07:27:02;63.08;;;27.30;;
82230;SDS011;71832;45.138;9.816;2023-10-19T07:29:31;57.05;;;27.65;;
82230;SDS011;71832;45.138;9.816;2023-10-19T07:32:02;56.75;;;28.27;;
82230;SDS011;71832;45.138;9.816;2023-10-19T07:34:32;54.13;;;25.75;;
82230;SDS011;71832;45.138;9.816;2023-10-19T07:37:00;53.08;;;27.42;;
82230;SDS011;71832;45.138;9.816;2023-10-19T07:39:29;47.78;;;24.73;;
82230;SDS011;71832;45.138;9.816;2023-10-19T07:41:59;50.25;;;24.42;;
82230;SDS011;71832;45.138;9.816;2023-10-19T07:44:31;49.50;;;25.15;;
82230;SDS011;71832;45.138;9.816;2023-10-19T07:46:59;44.05;;;22.30;;
82230;SDS011;71832;45.138;9.816;2023-10-19T07:49:28;46.78;;;24.50;;
82230;SDS011;71832;45.138;9.816;2023-10-19T07:51:57;49.03;;;23.75;;
82230;SDS011;71832;45.138;9.816;2023-10-19T07:54:26;48.90;;;24.15;;
82230;SDS011;71832;45.138;9.816;2023-10-19T07:56:55;46.10;;;23.67;;
82230;SDS011;71832;45.138;9.816;2023-10-19T07:59:23;50.55;;;24.80;;
82230;SDS011;71832;45.138;9.816;2023-10-19T08:01:52;50.33;;;26.50;;
82230;SDS011;71832;45.138;9.816;2023-10-19T08:04:21;49.53;;;24.80;;
82230;SDS011;71832;45.138;9.816;2023-10-19T08:06:51;53.92;;;26.33;;
82230;SDS011;71832;45.138;9.816;2023-10-19T08:09:20;50.90;;;25.52;;
82230;SDS011;71832;45.138;9.816;2023-10-19T08:11:50;52.20;;;24.80;;
82230;SDS011;71832;45.138;9.816;2023-10-19T08:16:51;50.67;;;24.95;;
82230;SDS011;71832;45.138;9.816;2023-10-19T08:19:20;47.85;;;24.10;;
82230;SDS011;71832;45.138;9.816;2023-10-19T08:21:48;47.50;;;23.50;;
82230;SDS011;71832;45.138;9.816;2023-10-19T08:24:17;44.80;;;23.35;;
82230;SDS011;71832;45.138;9.816;2023-10-19T08:26:46;46.03;;;23.30;;
82230;SDS011;71832;45.138;9.816;2023-10-19T08:29:16;49.00;;;25.30;;
82230;SDS011;71832;45.138;9.816;2023-10-19T08:31:45;43.55;;;22.60;;
82230;SDS011;71832;45.138;9.816;2023-10-19T08:34:13;46.80;;;25.15;;
82230;SDS011;71832;45.138;9.816;2023-10-19T08:36:41;48.80;;;23.67;;
82230;SDS011;71832;45.138;9.816;2023-10-19T08:39:10;47.80;;;23.67;;
82230;SDS011;71832;45.138;9.816;2023-10-19T08:41:39;45.85;;;23.80;;
82230;SDS011;71832;45.138;9.816;2023-10-19T08:44:07;46.20;;;24.23;;
82230;SDS011;71832;45.138;9.816;2023-10-19T08:46:41;45.25;;;23.75;;
82230;SDS011;71832;45.138;9.816;2023-10-19T08:49:11;42.72;;;22.58;;
82230;SDS011;71832;45.138;9.816;2023-10-19T08:51:39;42.85;;;22.83;;
82230;SDS011;71832;45.138;9.816;2023-10-19T08:54:12;45.38;;;24.00;;
82230;SDS011;71832;45.138;9.816;2023-10-19T08:56:40;45.40;;;24.70;;
82230;SDS011;71832;45.138;9.816;2023-10-19T08:59:11;42.22;;;23.58;;
82230;SDS011;71832;45.138;9.816;2023-10-19T09:01:41;43.58;;;24.25;;
82230;SDS011;71832;45.138;9.816;2023-10-19T09:04:10;46.38;;;24.38;;
82230;SDS011;71832;45.138;9.816;2023-10-19T09:06:40;40.10;;;22.40;;
82230;SDS011;71832;45.138;9.816;2023-10-19T09:09:11;38.05;;;21.85;;
82230;SDS011;71832;45.138;9.816;2023-10-19T09:11:51;42.63;;;22.90;;
82230;SDS011;71832;45.138;9.816;2023-10-19T09:14:38;44.10;;;22.33;;
82230;SDS011;71832;45.138;9.816;2023-10-19T09:17:08;39.25;;;20.63;;
82230;SDS011;71832;45.138;9.816;2023-10-19T09:19:37;38.75;;;20.67;;
82230;SDS011;71832;45.138;9.816;2023-10-19T09:22:07;39.35;;;21.02;;
82230;SDS011;71832;45.138;9.816;2023-10-19T09:24:48;37.10;;;20.50;;
82230;SDS011;71832;45.138;9.816;2023-10-19T09:27:19;41.90;;;21.75;;
82230;SDS011;71832;45.138;9.816;2023-10-19T09:29:48;41.38;;;22.10;;
82230;SDS011;71832;45.138;9.816;2023-10-19T09:32:17;43.53;;;22.90;;
82230;SDS011;71832;45.138;9.816;2023-10-19T09:34:45;40.78;;;22.50;;
82230;SDS011;71832;45.138;9.816;2023-10-19T09:37:14;38.08;;;20.38;;
82230;SDS011;71832;45.138;9.816;2023-10-19T09:39:43;44.50;;;23.27;;
82230;SDS011;71832;45.138;9.816;2023-10-19T09:42:11;45.88;;;22.60;;
82230;SDS011;71832;45.138;9.816;2023-10-19T09:44:43;42.67;;;23.77;;
82230;SDS011;71832;45.138;9.816;2023-10-19T09:47:20;41.97;;;22.25;;
82230;SDS011;71832;45.138;9.816;2023-10-19T09:50:04;41.58;;;22.63;;
82230;SDS011;71832;45.138;9.816;2023-10-19T09:52:33;45.42;;;22.85;;
82230;SDS011;71832;45.138;9.816;2023-10-19T09:55:44;44.95;;;22.20;;
82230;SDS011;71832;45.138;9.816;2023-10-19T09:57:56;44.20;;;22.25;;
82230;SDS011;71832;45.138;9.816;2023-10-19T10:00:31;45.28;;;24.67;;
82230;SDS011;71832;45.138;9.816;2023-10-19T10:03:01;41.55;;;22.40;;
82230;SDS011;71832;45.138;9.816;2023-10-19T10:05:49;46.55;;;23.92;;
82230;SDS011;71832;45.138;9.816;2023-10-19T10:10:47;46.95;;;24.63;;
82230;SDS011;71832;45.138;9.816;2023-10-19T10:15:56;42.80;;;23.13;;
82230;SDS011;71832;45.138;9.816;2023-10-19T10:18:26;42.60;;;22.25;;
82230;SDS011;71832;45.138;9.816;2023-10-19T10:21:37;45.15;;;23.02;;
82230;SDS011;71832;45.138;9.816;2023-10-19T10:23:57;46.58;;;23.55;;
82230;SDS011;71832;45.138;9.816;2023-10-19T10:26:27;43.90;;;23.83;;
82230;SDS011;71832;45.138;9.816;2023-10-19T10:31:53;44.88;;;24.02;;
82230;SDS011;71832;45.138;9.816;2023-10-19T10:34:42;44.80;;;23.40;;
82230;SDS011;71832;45.138;9.816;2023-10-19T10:37:10;41.40;;;21.88;;
82230;SDS011;71832;45.138;9.816;2023-10-19T10:39:40;43.65;;;22.85;;
82230;SDS011;71832;45.138;9.816;2023-10-19T10:42:10;33.97;;;20.05;;
82230;SDS011;71832;45.138;9.816;2023-10-19T10:47:12;32.90;;;19.23;;
82230;SDS011;71832;45.138;9.816;2023-10-19T10:49:51;29.67;;;18.73;;
82230;SDS011;71832;45.138;9.816;2023-10-19T10:52:30;33.83;;;19.83;;
82230;SDS011;71832;45.138;9.816;2023-10-19T10:55:10;34.78;;;19.88;;
82230;SDS011;71832;45.138;9.816;2023-10-19T10:57:40;35.67;;;20.88;;
82230;SDS011;71832;45.138;9.816;2023-10-19T11:00:11;36.97;;;21.00;;
82230;SDS011;71832;45.138;9.816;2023-10-19T11:02:45;33.97;;;19.98;;
82230;SDS011;71832;45.138;9.816;2023-10-19T11:05:25;34.28;;;19.55;;
82230;SDS011;71832;45.138;9.816;2023-10-19T11:10:44;34.55;;;20.48;;
82230;SDS011;71832;45.138;9.816;2023-10-19T11:13:13;36.95;;;19.55;;
82230;SDS011;71832;45.138;9.816;2023-10-19T11:15:48;34.08;;;19.25;;
82230;SDS011;71832;45.138;9.816;2023-10-19T11:18:36;32.30;;;19.08;;
82230;SDS011;71832;45.138;9.816;2023-10-19T11:21:07;34.20;;;18.17;;
82230;SDS011;71832;45.138;9.816;2023-10-19T11:23:38;27.83;;;16.15;;
82230;SDS011;71832;45.138;9.816;2023-10-19T11:26:06;27.33;;;16.08;;
82230;SDS011;71832;45.138;9.816;2023-10-19T11:28:36;26.35;;;15.43;;
82230;SDS011;71832;45.138;9.816;2023-10-19T11:31:10;24.90;;;15.13;;
82230;SDS011;71832;45.138;9.816;2023-10-19T11:33:48;25.67;;;15.45;;
82230;SDS011;71832;45.138;9.816;2023-10-19T11:36:19;25.40;;;16.02;;
82230;SDS011;71832;45.138;9.816;2023-10-19T11:38:48;26.17;;;16.48;;
82230;SDS011;71832;45.138;9.816;2023-10-19T11:41:18;24.83;;;15.90;;
82230;SDS011;71832;45.138;9.816;2023-10-19T11:43:46;25.67;;;15.65;;
82230;SDS011;71832;45.138;9.816;2023-10-19T11:46:16;23.08;;;14.98;;
82230;SDS011;71832;45.138;9.816;2023-10-19T11:48:47;22.70;;;15.15;;
82230;SDS011;71832;45.138;9.816;2023-10-19T11:51:16;25.27;;;16.30;;
82230;SDS011;71832;45.138;9.816;2023-10-19T11:53:44;22.85;;;15.75;;
82230;SDS011;71832;45.138;9.816;2023-10-19T11:56:13;25.15;;;17.10;;
82230;SDS011;71832;45.138;9.816;2023-10-19T11:58:42;25.80;;;17.10;;
82230;SDS011;71832;45.138;9.816;2023-10-19T12:01:12;27.90;;;17.60;;
82230;SDS011;71832;45.138;9.816;2023-10-19T12:03:42;27.70;;;18.00;;
82230;SDS011;71832;45.138;9.816;2023-10-19T12:06:12;28.30;;;18.15;;
82230;SDS011;71832;45.138;9.816;2023-10-19T12:08:45;28.45;;;18.20;;
82230;SDS011;71832;45.138;9.816;2023-10-19T12:11:14;28.02;;;18.48;;
82230;SDS011;71832;45.138;9.816;2023-10-19T12:13:44;28.65;;;18.95;;
82230;SDS011;71832;45.138;9.816;2023-10-19T12:16:13;26.55;;;17.83;;
82230;SDS011;71832;45.138;9.816;2023-10-19T12:18:42;30.83;;;19.55;;
82230;SDS011;71832;45.138;9.816;2023-10-19T12:21:14;31.40;;;20.55;;
82230;SDS011;71832;45.138;9.816;2023-10-19T12:23:44;31.48;;;19.58;;
82230;SDS011;71832;45.138;9.816;2023-10-19T12:26:23;35.38;;;20.50;;
82230;SDS011;71832;45.138;9.816;2023-10-19T12:28:52;32.13;;;19.35;;
82230;SDS011;71832;45.138;9.816;2023-10-19T12:31:21;31.17;;;20.35;;
82230;SDS011;71832;45.138;9.816;2023-10-19T12:33:50;31.63;;;20.08;;
82230;SDS011;71832;45.138;9.816;2023-10-19T12:36:19;30.38;;;18.55;;
82230;SDS011;71832;45.138;9.816;2023-10-19T12:41:25;30.20;;;18.80;;
82230;SDS011;71832;45.138;9.816;2023-10-19T12:43:54;28.60;;;19.00;;
82230;SDS011;71832;45.138;9.816;2023-10-19T12:46:23;27.83;;;17.63;;
82230;SDS011;71832;45.138;9.816;2023-10-19T12:48:51;29.55;;;19.38;;
82230;SDS011;71832;45.138;9.816;2023-10-19T12:51:22;29.02;;;18.70;;
82230;SDS011;71832;45.138;9.816;2023-10-19T12:53:51;28.45;;;18.88;;
82230;SDS011;71832;45.138;9.816;2023-10-19T12:56:20;29.67;;;19.55;;
82230;SDS011;71832;45.138;9.816;2023-10-19T12:58:50;34.75;;;20.88;;
82230;SDS011;71832;45.138;9.816;2023-10-19T13:01:20;31.20;;;19.48;;
82230;SDS011;71832;45.138;9.816;2023-10-19T13:03:48;28.17;;;17.77;;
82230;SDS011;71832;45.138;9.816;2023-10-19T13:06:17;29.08;;;18.73;;
82230;SDS011;71832;45.138;9.816;2023-10-19T13:08:45;29.88;;;19.42;;
82230;SDS011;71832;45.138;9.816;2023-10-19T13:11:14;31.42;;;20.27;;
82230;SDS011;71832;45.138;9.816;2023-10-19T13:13:44;31.73;;;20.30;;
82230;SDS011;71832;45.138;9.816;2023-10-19T13:16:12;28.52;;;19.00;;
82230;SDS011;71832;45.138;9.816;2023-10-19T13:18:42;29.40;;;19.40;;
82230;SDS011;71832;45.138;9.816;2023-10-19T13:21:11;27.48;;;17.98;;
82230;SDS011;71832;45.138;9.816;2023-10-19T13:23:47;27.27;;;18.38;;
82230;SDS011;71832;45.138;9.816;2023-10-19T13:26:17;27.65;;;18.38;;
82230;SDS011;71832;45.138;9.816;2023-10-19T13:28:45;25.08;;;17.23;;
82230;SDS011;71832;45.138;9.816;2023-10-19T13:31:16;25.08;;;16.95;;
82230;SDS011;71832;45.138;9.816;2023-10-19T13:33:45;25.38;;;16.15;;
82230;SDS011;71832;45.138;9.816;2023-10-19T13:36:13;24.90;;;17.02;;
82230;SDS011;71832;45.138;9.816;2023-10-19T13:38:42;24.25;;;16.20;;
82230;SDS011;71832;45.138;9.816;2023-10-19T13:41:11;23.70;;;16.42;;
82230;SDS011;71832;45.138;9.816;2023-10-19T13:43:42;24.88;;;15.82;;
82230;SDS011;71832;45.138;9.816;2023-10-19T13:46:27;25.40;;;16.88;;
82230;SDS011;71832;45.138;9.816;2023-10-19T13:48:57;21.88;;;14.27;;
82230;SDS011;71832;45.138;9.816;2023-10-19T13:51:29;22.98;;;14.60;;
82230;SDS011;71832;45.138;9.816;2023-10-19T13:53:58;26.20;;;15.93;;
82230;SDS011;71832;45.138;9.816;2023-10-19T13:56:26;23.48;;;15.05;;
82230;SDS011;71832;45.138;9.816;2023-10-19T13:58:55;49.67;;;20.10;;
82230;SDS011;71832;45.138;9.816;2023-10-19T14:01:24;40.83;;;19.83;;
82230;SDS011;71832;45.138;9.816;2023-10-19T14:03:54;27.85;;;16.55;;
82230;SDS011;71832;45.138;9.816;2023-10-19T14:06:23;35.33;;;18.35;;
82230;SDS011;71832;45.138;9.816;2023-10-19T14:08:51;22.25;;;14.27;;
82230;SDS011;71832;45.138;9.816;2023-10-19T14:11:20;23.25;;;16.05;;
82230;SDS011;71832;45.138;9.816;2023-10-19T14:13:49;22.35;;;14.60;;
82230;SDS011;71832;45.138;9.816;2023-10-19T14:16:18;23.55;;;14.73;;
82230;SDS011;71832;45.138;9.816;2023-10-19T14:18:47;29.30;;;18.70;;
82230;SDS011;71832;45.138;9.816;2023-10-19T14:21:17;23.75;;;16.10;;
82230;SDS011;71832;45.138;9.816;2023-10-19T14:23:46;23.02;;;15.70;;
82230;SDS011;71832;45.138;9.816;2023-10-19T14:26:14;23.98;;;15.27;;
82230;SDS011;71832;45.138;9.816;2023-10-19T14:28:43;24.33;;;15.20;;
82230;SDS011;71832;45.138;9.816;2023-10-19T14:31:12;24.25;;;15.90;;
82230;SDS011;71832;45.138;9.816;2023-10-19T14:33:42;24.08;;;15.82;;
82230;SDS011;71832;45.138;9.816;2023-10-19T14:36:11;22.65;;;15.65;;
82230;SDS011;71832;45.138;9.816;2023-10-19T14:38:40;24.45;;;15.30;;
82230;SDS011;71832;45.138;9.816;2023-10-19T14:41:10;21.98;;;14.88;;
82230;SDS011;71832;45.138;9.816;2023-10-19T14:43:38;21.45;;;15.35;;
82230;SDS011;71832;45.138;9.816;2023-10-19T14:46:06;22.85;;;15.40;;
82230;SDS011;71832;45.138;9.816;2023-10-19T14:48:34;23.38;;;15.13;;
82230;SDS011;71832;45.138;9.816;2023-10-19T14:51:03;23.60;;;15.98;;
82230;SDS011;71832;45.138;9.816;2023-10-19T14:53:31;24.02;;;15.85;;
82230;SDS011;71832;45.138;9.816;2023-10-19T14:55:59;25.50;;;16.23;;
82230;SDS011;71832;45.138;9.816;2023-10-19T14:58:27;23.08;;;15.73;;
82230;SDS011;71832;45.138;9.816;2023-10-19T15:00:57;22.75;;;15.80;;
82230;SDS011;71832;45.138;9.816;2023-10-19T15:03:25;21.90;;;15.27;;
82230;SDS011;71832;45.138;9.816;2023-10-19T15:05:54;23.67;;;15.70;;